Time;durP1;ratioP1;P1;durP2;ratioP2;P2;SDS_P1;SDS_P2;PMS_P1;PMS_P2;Temp;Humidity;BMP_temperature;BMP_pressure;BME280_temperature;BME280_humidity;BME280_pressure;Samples;Min_cycle;Max_cycle;Signal;HPM_P1;HPM_P2
2021/09/14 00:02:17;;;;;;;10.05;6.18;;;19.20;92.00;;;;;;5043530;28;20029;-75
2021/09/14 00:04:43;;;;;;;7.53;5.43;;;19.30;91.90;;;;;;5046502;28;20041;-74
2021/09/14 00:07:09;;;;;;;9.38;6.18;;;19.30;91.80;;;;;;5043209;28;20364;-75
2021/09/14 00:09:34;;;;;;;7.80;5.03;;;19.30;91.70;;;;;;5044339;28;20372;-74
2021/09/14 00:12:00;;;;;;;7.45;5.50;;;19.30;91.60;;;;;;5044197;28;20055;-74
2021/09/14 00:14:26;;;;;;;8.40;5.97;;;19.30;91.60;;;;;;5044354;28;20475;-73
2021/09/14 00:16:52;;;;;;;9.93;6.47;;;19.40;91.70;;;;;;5043683;28;20482;-74
2021/09/14 00:19:17;;;;;;;12.05;6.95;;;19.30;91.80;;;;;;5040193;28;20025;-74
2021/09/14 00:21:43;;;;;;;8.63;6.30;;;19.40;92.00;;;;;;5040998;28;20033;-75
2021/09/14 00:24:09;;;;;;;16.10;7.20;;;19.50;91.80;;;;;;5044089;28;20047;-75
2021/09/14 00:26:35;;;;;;;10.75;6.15;;;19.40;92.00;;;;;;5042181;28;20017;-74
2021/09/14 00:29:01;;;;;;;8.93;6.35;;;19.40;92.00;;;;;;5044057;28;20143;-74
2021/09/14 00:31:28;;;;;;;9.35;6.57;;;19.50;91.90;;;;;;5041196;28;20140;-75
2021/09/14 00:33:54;;;;;;;11.40;6.63;;;19.50;91.80;;;;;;5042329;28;20036;-74
2021/09/14 00:36:20;;;;;;;9.93;6.95;;;19.50;91.80;;;;;;5042995;28;20033;-74
2021/09/14 00:38:46;;;;;;;10.57;6.60;;;19.50;91.90;;;;;;5043410;28;20445;-74
2021/09/14 00:41:12;;;;;;;10.82;7.25;;;19.50;91.90;;;;;;5043723;28;20017;-75
2021/09/14 00:43:38;;;;;;;11.00;6.53;;;19.30;92.10;;;;;;5043741;28;20033;-74
2021/09/14 00:46:04;;;;;;;9.60;6.05;;;19.30;92.10;;;;;;5044957;28;20055;-73
2021/09/14 00:48:29;;;;;;;11.20;7.00;;;19.20;92.10;;;;;;5041973;28;20597;-74
2021/09/14 00:50:55;;;;;;;10.50;6.80;;;19.10;92.30;;;;;;5045295;28;20055;-76
2021/09/14 00:53:23;;;;;;;9.77;6.57;;;18.90;92.60;;;;;;5043325;28;20035;-74
2021/09/14 00:55:49;;;;;;;9.05;6.95;;;18.90;92.60;;;;;;5044931;28;20079;-74
2021/09/14 00:58:15;;;;;;;9.48;6.47;;;18.90;92.60;;;;;;5045002;28;20029;-74
2021/09/14 01:00:41;;;;;;;10.90;6.93;;;18.80;92.80;;;;;;5043443;28;20108;-74
2021/09/14 01:03:07;;;;;;;8.88;6.18;;;18.80;92.80;;;;;;5042857;28;20556;-74
2021/09/14 01:05:33;;;;;;;10.90;6.30;;;18.80;92.80;;;;;;5045391;28;20045;-74
2021/09/14 01:08:00;;;;;;;13.40;7.85;;;18.80;92.80;;;;;;5044385;28;20075;-74
2021/09/14 01:10:25;;;;;;;8.18;5.97;;;19.00;92.90;;;;;;5042904;28;20482;-74
2021/09/14 01:12:51;;;;;;;11.00;7.32;;;18.90;92.90;;;;;;5044657;28;20029;-74
2021/09/14 01:15:17;;;;;;;8.77;6.30;;;18.80;93.10;;;;;;5041899;28;20170;-74
2021/09/14 01:17:43;;;;;;;10.82;5.97;;;18.80;93.10;;;;;;5043833;28;20036;-74
2021/09/14 01:20:09;;;;;;;11.57;6.93;;;18.60;93.10;;;;;;5039764;28;20115;-74
2021/09/14 01:22:35;;;;;;;8.18;5.72;;;18.70;92.90;;;;;;5043553;28;20041;-75
2021/09/14 01:25:12;;;;;;;9.45;6.53;;;18.70;92.70;;;;;;5044195;28;20021;-74
2021/09/14 01:27:38;;;;;;;11.20;6.22;;;18.60;93.00;;;;;;5042166;28;20120;-74
2021/09/14 01:30:12;;;;;;;11.15;6.72;;;18.50;92.90;;;;;;5043513;28;20143;-75
2021/09/14 01:32:39;;;;;;;9.70;6.05;;;18.40;93.20;;;;;;5036548;28;20025;-74
2021/09/14 01:35:09;;;;;;;8.65;6.35;;;18.40;93.10;;;;;;5042428;28;20107;-74
2021/09/14 01:37:35;;;;;;;11.88;6.03;;;18.50;93.00;;;;;;5043278;28;20441;-74
2021/09/14 01:40:00;;;;;;;10.10;6.63;;;18.40;93.30;;;;;;5041688;28;20029;-74
2021/09/14 01:42:26;;;;;;;9.00;6.15;;;18.40;93.30;;;;;;5043274;28;20040;-74
2021/09/14 01:44:52;;;;;;;10.27;7.00;;;18.30;93.40;;;;;;5044082;28;20021;-75
2021/09/14 01:47:18;;;;;;;12.20;6.95;;;18.20;93.50;;;;;;5040553;28;20028;-74
2021/09/14 01:49:44;;;;;;;11.50;6.50;;;18.20;93.40;;;;;;5047143;28;20037;-73
2021/09/14 01:52:09;;;;;;;8.65;6.03;;;18.30;93.30;;;;;;5044999;28;20032;-73
2021/09/14 01:54:35;;;;;;;9.18;5.93;;;18.30;93.30;;;;;;5049030;28;20507;-73
2021/09/14 01:57:01;;;;;;;12.80;7.25;;;18.30;93.10;;;;;;5046771;28;20021;-73
2021/09/14 01:59:27;;;;;;;8.23;6.45;;;18.40;93.10;;;;;;5050174;28;20033;-73
2021/09/14 02:04:37;;;;;;;8.77;6.47;;;18.50;92.80;;;;;;5049773;28;20033;-73
2021/09/14 02:56:22;;;;;;;17.38;7.50;;;17.70;94.50;;;;;;5053220;28;19915;-73
2021/09/14 02:58:49;;;;;;;10.48;7.53;;;17.70;94.50;;;;;;5052395;28;20031;-74
2021/09/14 03:01:15;;;;;;;18.10;8.57;;;17.70;94.40;;;;;;5050786;28;20024;-73
2021/09/14 03:03:43;;;;;;;8.77;6.65;;;17.80;94.30;;;;;;5041278;28;20067;-74
2021/09/14 03:06:10;;;;;;;12.77;7.28;;;17.90;94.10;;;;;;5044587;28;20072;-74
2021/09/14 03:08:37;;;;;;;13.63;7.07;;;18.00;94.00;;;;;;5044136;28;20043;-74
2021/09/14 03:11:13;;;;;;;8.80;6.57;;;18.00;93.90;;;;;;5042499;28;20025;-74
2021/09/14 03:13:40;;;;;;;13.93;7.22;;;18.00;94.00;;;;;;5044976;28;20051;-74
2021/09/14 03:16:07;;;;;;;11.93;7.35;;;18.00;94.10;;;;;;5042808;28;20068;-74
2021/09/14 03:18:34;;;;;;;13.40;7.45;;;18.00;94.10;;;;;;5043532;28;20035;-73
2021/09/14 03:21:01;;;;;;;11.38;7.05;;;18.20;93.80;;;;;;5036606;28;20071;-74
2021/09/14 03:23:27;;;;;;;13.02;7.82;;;18.50;93.70;;;;;;5046126;28;20040;-74
2021/09/14 03:25:53;;;;;;;10.32;7.15;;;18.60;93.20;;;;;;5045113;28;20029;-74
2021/09/14 03:28:19;;;;;;;11.63;7.68;;;18.80;93.10;;;;;;5047812;28;20025;-74
2021/09/14 03:30:45;;;;;;;10.07;6.72;;;18.50;93.40;;;;;;5042885;28;20033;-73
2021/09/14 03:33:11;;;;;;;8.80;7.05;;;18.40;93.40;;;;;;5044418;28;20033;-74
2021/09/14 03:35:37;;;;;;;10.52;7.20;;;18.40;93.30;;;;;;5045475;28;20033;-74
2021/09/14 03:38:03;;;;;;;10.52;7.15;;;18.30;93.30;;;;;;5047748;28;20033;-73
2021/09/14 03:40:29;;;;;;;10.45;7.05;;;18.40;93.40;;;;;;5046295;28;20032;-73
2021/09/14 03:42:54;;;;;;;11.95;7.47;;;18.30;93.50;;;;;;5044925;28;20523;-73
2021/09/14 03:45:20;;;;;;;9.43;6.57;;;18.20;93.60;;;;;;5041162;28;20061;-74
2021/09/14 03:47:46;;;;;;;12.10;7.65;;;18.20;93.70;;;;;;5042650;28;20032;-74
2021/09/14 03:50:12;;;;;;;9.55;6.50;;;18.10;93.80;;;;;;5046517;28;20028;-74
2021/09/14 03:52:38;;;;;;;10.30;6.85;;;18.00;94.00;;;;;;5045834;28;20035;-74
2021/09/14 03:55:05;;;;;;;11.38;7.35;;;17.90;94.20;;;;;;5043236;28;20056;-75
2021/09/14 03:57:31;;;;;;;12.13;6.93;;;18.10;94.00;;;;;;5044905;28;20495;-75
2021/09/14 03:59:56;;;;;;;13.32;7.47;;;17.90;94.20;;;;;;5041320;28;20036;-75
2021/09/14 04:10:10;;;;;;;11.13;7.60;;;17.80;94.50;;;;;;5012945;28;20036;-75
2021/09/14 04:12:36;;;;;;;11.23;7.38;;;17.90;94.20;;;;;;5025188;28;20391;-74
2021/09/14 04:15:02;;;;;;;9.38;7.40;;;18.00;94.10;;;;;;5041219;28;20456;-74
2021/09/14 04:17:28;;;;;;;9.63;6.88;;;18.00;94.10;;;;;;5043417;28;20021;-75
2021/09/14 04:19:54;;;;;;;11.30;6.60;;;17.90;94.30;;;;;;5042968;28;20021;-73
2021/09/14 04:22:19;;;;;;;9.95;7.00;;;17.90;94.30;;;;;;5033191;28;20033;-74
2021/09/14 04:24:45;;;;;;;11.43;7.50;;;17.80;94.30;;;;;;5040325;28;20068;-74
2021/09/14 04:27:11;;;;;;;9.13;7.35;;;17.80;94.50;;;;;;5041358;28;20124;-74
2021/09/14 04:29:37;;;;;;;11.98;7.53;;;17.70;94.70;;;;;;5042457;28;20068;-75
2021/09/14 04:32:03;;;;;;;11.23;7.50;;;17.70;94.50;;;;;;5038912;28;20039;-75
2021/09/14 04:34:28;;;;;;;12.70;8.45;;;17.60;94.70;;;;;;5040869;28;20040;-74
2021/09/14 04:36:54;;;;;;;9.50;6.97;;;17.70;94.80;;;;;;5038748;28;20029;-74
2021/09/14 04:39:20;;;;;;;11.80;7.18;;;17.80;94.70;;;;;;5042168;28;20071;-74
2021/09/14 04:41:47;;;;;;;9.70;7.43;;;17.60;95.00;;;;;;5041794;28;20025;-75
2021/09/14 04:44:13;;;;;;;9.82;7.25;;;17.50;95.10;;;;;;5043292;28;20127;-73
2021/09/14 04:46:39;;;;;;;10.32;7.32;;;17.40;95.20;;;;;;5040420;28;20082;-72
2021/09/14 04:49:04;;;;;;;13.70;7.25;;;17.40;95.10;;;;;;5039496;28;20030;-74
2021/09/14 04:51:31;;;;;;;13.15;7.25;;;17.30;95.50;;;;;;5042420;28;20033;-74
2021/09/14 04:53:57;;;;;;;9.90;7.35;;;17.20;95.50;;;;;;5039612;28;20772;-74
2021/09/14 04:56:23;;;;;;;10.27;8.15;;;17.30;95.50;;;;;;5043184;28;20033;-75
2021/09/14 04:58:50;;;;;;;10.50;8.13;;;17.30;95.30;;;;;;5039628;28;20099;-74
2021/09/14 05:01:19;;;;;;;9.70;7.07;;;17.30;95.30;;;;;;5040957;28;20033;-75
2021/09/14 05:03:47;;;;;;;11.57;7.50;;;17.50;94.90;;;;;;5035599;28;20044;-75
2021/09/14 05:06:13;;;;;;;12.00;7.13;;;17.60;94.90;;;;;;5042328;28;20041;-74
2021/09/14 05:08:39;;;;;;;10.63;7.57;;;17.60;95.00;;;;;;5040030;28;20033;-73
2021/09/14 05:11:05;;;;;;;11.27;7.50;;;17.40;95.20;;;;;;5041661;28;20090;-76
2021/09/14 05:13:31;;;;;;;9.35;7.22;;;17.30;95.30;;;;;;5043021;28;20121;-74
2021/09/14 05:15:57;;;;;;;11.70;7.53;;;17.50;95.10;;;;;;5043184;28;20029;-75
2021/09/14 05:18:28;;;;;;;14.75;8.32;;;17.40;95.20;;;;;;5043032;28;20039;-75
2021/09/14 05:20:55;;;;;;;10.55;7.15;;;17.60;94.80;;;;;;5043674;28;20032;-75
2021/09/14 05:23:30;;;;;;;9.35;6.68;;;17.60;94.80;;;;;;5041042;28;20029;-75
2021/09/14 05:25:57;;;;;;;17.27;8.40;;;17.60;94.90;;;;;;5047501;28;20594;-73
2021/09/14 05:28:23;;;;;;;10.13;7.88;;;17.50;95.10;;;;;;5041691;28;20033;-72
2021/09/14 05:30:50;;;;;;;10.40;6.97;;;17.50;94.90;;;;;;5041687;28;20029;-73
2021/09/14 05:33:15;;;;;;;13.20;7.55;;;17.70;94.80;;;;;;5047854;28;20052;-72
2021/09/14 05:35:44;;;;;;;11.35;7.78;;;17.80;94.50;;;;;;5043202;28;20068;-71
2021/09/14 05:38:11;;;;;;;9.60;7.63;;;17.70;94.60;;;;;;5043500;28;20021;-72
2021/09/14 05:40:37;;;;;;;13.73;7.32;;;17.60;94.80;;;;;;5043414;28;20094;-72
2021/09/14 05:43:05;;;;;;;11.82;7.80;;;17.60;95.10;;;;;;5043414;28;20025;-72
2021/09/14 05:45:32;;;;;;;10.32;7.90;;;17.60;95.10;;;;;;5043086;28;20023;-72
2021/09/14 05:47:58;;;;;;;12.88;8.18;;;17.50;95.20;;;;;;5042969;28;20017;-72
2021/09/14 05:50:25;;;;;;;12.30;7.75;;;17.50;95.30;;;;;;5043535;28;20971;-72
2021/09/14 05:52:51;;;;;;;10.25;7.72;;;17.60;95.20;;;;;;5043498;28;20056;-72
2021/09/14 05:55:17;;;;;;;10.70;7.70;;;17.70;95.20;;;;;;5043319;28;20025;-72
2021/09/14 05:57:43;;;;;;;12.00;8.48;;;17.60;95.40;;;;;;5043144;28;20029;-72
2021/09/14 06:00:10;;;;;;;10.93;8.13;;;17.60;95.40;;;;;;5043135;28;20036;-72
2021/09/14 06:02:37;;;;;;;12.57;8.93;;;17.50;95.60;;;;;;5045473;28;20522;-72
2021/09/14 06:05:03;;;;;;;15.35;8.93;;;17.50;95.90;;;;;;5046454;28;20124;-71
2021/09/14 06:07:29;;;;;;;12.30;7.57;;;17.50;96.00;;;;;;5046864;28;20581;-72
2021/09/14 06:09:55;;;;;;;15.88;8.57;;;17.40;96.00;;;;;;5046682;28;20025;-72
2021/09/14 06:12:22;;;;;;;13.45;8.20;;;17.50;95.70;;;;;;5046368;28;20419;-72
2021/09/14 06:14:48;;;;;;;10.50;8.18;;;17.60;95.70;;;;;;5046435;28;20035;-72
2021/09/14 06:17:14;;;;;;;11.02;7.80;;;17.60;95.70;;;;;;5046634;28;20036;-72
2021/09/14 06:19:40;;;;;;;11.40;7.82;;;17.90;94.90;;;;;;5047026;28;20025;-72
2021/09/14 06:22:05;;;;;;;12.30;8.07;;;17.80;95.40;;;;;;5045442;28;20509;-72
2021/09/14 06:24:31;;;;;;;11.90;8.38;;;17.70;95.70;;;;;;5045602;28;20036;-72
2021/09/14 06:26:57;;;;;;;11.30;8.18;;;17.60;95.80;;;;;;5045123;28;20036;-72
2021/09/14 06:29:23;;;;;;;13.65;8.48;;;17.60;95.90;;;;;;5044902;28;20182;-72
2021/09/14 06:31:49;;;;;;;11.88;8.68;;;17.70;95.80;;;;;;5044841;28;20087;-72
2021/09/14 06:34:14;;;;;;;16.17;8.45;;;17.80;95.70;;;;;;5044884;28;20083;-72
2021/09/14 06:36:40;;;;;;;15.43;7.80;;;17.80;95.50;;;;;;5044606;28;20017;-71
2021/09/14 06:39:06;;;;;;;11.60;8.98;;;18.10;94.80;;;;;;5044709;28;20669;-71
2021/09/14 06:41:31;;;;;;;14.13;10.45;;;18.20;94.80;;;;;;5045138;28;20032;-71
2021/09/14 06:43:58;;;;;;;17.05;12.32;;;18.10;95.80;;;;;;5046236;28;20395;-71
2021/09/14 06:46:24;;;;;;;17.00;12.10;;;18.00;96.10;;;;;;5045725;28;20039;-73
2021/09/14 06:48:51;;;;;;;17.60;13.07;;;17.70;96.40;;;;;;5046212;28;20037;-73
2021/09/14 06:51:16;;;;;;;17.85;11.32;;;17.70;96.70;;;;;;5046157;28;20061;-73
2021/09/14 06:53:42;;;;;;;19.67;11.50;;;17.60;96.50;;;;;;5042209;28;20072;-72
2021/09/14 06:56:08;;;;;;;22.70;10.70;;;17.80;96.50;;;;;;5026054;28;20602;-73
2021/09/14 06:58:35;;;;;;;23.25;12.50;;;17.90;96.50;;;;;;5025025;28;20029;-73
2021/09/14 07:01:01;;;;;;;19.05;12.32;;;17.90;96.70;;;;;;5025902;28;20029;-73
2021/09/14 07:03:27;;;;;;;19.45;12.93;;;18.70;96.00;;;;;;5025872;28;20048;-72
2021/09/14 07:05:53;;;;;;;22.35;11.90;;;20.60;93.30;;;;;;5025756;28;20551;-72
2021/09/14 07:08:19;;;;;;;19.02;12.18;;;21.10;92.50;;;;;;5025963;28;20523;-72
2021/09/14 07:10:44;;;;;;;16.05;11.80;;;19.90;93.60;;;;;;5025781;28;20353;-71
2021/09/14 07:13:10;;;;;;;12.70;9.32;;;19.10;95.10;;;;;;5025049;28;20064;-71
2021/09/14 07:15:36;;;;;;;14.90;9.88;;;18.70;95.90;;;;;;5025250;28;20072;-72
2021/09/14 07:18:02;;;;;;;16.02;10.18;;;18.60;96.10;;;;;;5025596;28;20026;-71
2021/09/14 07:20:28;;;;;;;12.95;10.65;;;18.50;96.30;;;;;;5025560;28;20041;-71
2021/09/14 07:22:54;;;;;;;14.07;10.05;;;18.60;96.40;;;;;;5025296;28;20033;-71
2021/09/14 07:25:20;;;;;;;13.02;9.88;;;18.70;96.40;;;;;;5025515;28;20029;-69
2021/09/14 07:27:45;;;;;;;12.60;9.40;;;18.70;96.10;;;;;;5025135;28;20029;-71
2021/09/14 07:30:11;;;;;;;14.82;9.93;;;18.70;96.10;;;;;;5025972;28;20025;-71
2021/09/14 07:32:37;;;;;;;13.57;10.02;;;18.80;96.00;;;;;;5026083;28;20032;-72
2021/09/14 07:35:04;;;;;;;14.98;8.68;;;18.90;96.00;;;;;;5025842;28;20460;-71
2021/09/14 07:37:30;;;;;;;14.95;9.85;;;19.00;95.10;;;;;;5025661;28;20025;-70
2021/09/14 07:39:56;;;;;;;10.35;8.73;;;19.00;94.60;;;;;;5026282;28;20991;-71
2021/09/14 07:42:21;;;;;;;13.98;8.25;;;19.10;94.50;;;;;;5025610;28;20502;-72
2021/09/14 07:44:47;;;;;;;12.90;8.63;;;19.30;94.70;;;;;;5008091;28;20041;-71
2021/09/14 07:47:13;;;;;;;14.93;8.68;;;19.40;94.70;;;;;;5025518;28;20098;-71
2021/09/14 07:49:38;;;;;;;13.05;9.50;;;19.50;94.60;;;;;;5025432;28;20067;-72
2021/09/14 07:52:04;;;;;;;11.48;8.98;;;19.40;94.90;;;;;;5024662;28;20030;-73
2021/09/14 07:54:30;;;;;;;15.20;9.90;;;19.40;95.30;;;;;;5027481;28;20040;-71
2021/09/14 07:56:56;;;;;;;13.98;10.05;;;19.30;95.10;;;;;;5045019;28;20036;-73
2021/09/14 07:59:21;;;;;;;14.50;10.13;;;19.40;95.10;;;;;;5037166;28;20264;-73
2021/09/14 08:01:47;;;;;;;19.08;9.90;;;19.40;95.00;;;;;;5025152;28;20025;-73
2021/09/14 08:04:13;;;;;;;14.50;10.38;;;19.50;95.00;;;;;;5024431;28;20029;-73
2021/09/14 08:06:38;;;;;;;16.17;10.18;;;19.50;95.10;;;;;;5023182;28;20522;-74
2021/09/14 08:09:04;;;;;;;18.00;10.95;;;19.50;94.70;;;;;;5023994;28;20026;-72
2021/09/14 08:11:30;;;;;;;14.48;10.00;;;19.60;94.80;;;;;;5025006;28;20105;-73
2021/09/14 08:13:56;;;;;;;17.45;10.52;;;19.60;94.80;;;;;;5025098;28;20037;-75
2021/09/14 08:16:21;;;;;;;13.50;8.98;;;19.70;94.80;;;;;;5024344;28;20025;-72
2021/09/14 08:18:47;;;;;;;13.13;8.77;;;19.90;95.10;;;;;;5007552;28;20029;-72
2021/09/14 08:21:13;;;;;;;19.70;9.88;;;20.00;94.70;;;;;;5024941;28;20060;-72
2021/09/14 08:23:39;;;;;;;28.35;10.43;;;20.00;94.70;;;;;;5024857;28;20045;-72
2021/09/14 08:26:05;;;;;;;18.55;11.25;;;20.00;94.40;;;;;;5022666;28;20152;-72
2021/09/14 08:28:30;;;;;;;36.30;11.00;;;20.00;94.60;;;;;;5025880;28;20536;-72
2021/09/14 08:30:56;;;;;;;16.35;10.20;;;20.10;94.90;;;;;;5026277;28;20096;-73
2021/09/14 08:33:23;;;;;;;13.50;9.55;;;20.00;94.20;;;;;;5025985;28;20029;-73
2021/09/14 08:35:49;;;;;;;12.57;9.38;;;20.10;94.20;;;;;;5025997;28;20519;-74
2021/09/14 08:38:14;;;;;;;15.23;9.55;;;20.10;94.10;;;;;;5025888;28;20029;-74
2021/09/14 08:40:41;;;;;;;24.70;11.15;;;20.20;93.90;;;;;;5027215;28;20030;-74
2021/09/14 08:43:12;;;;;;;22.45;9.98;;;20.20;93.70;;;;;;5027810;28;20354;-74
2021/09/14 08:45:37;;;;;;;37.42;11.23;;;20.40;94.20;;;;;;5027877;28;20391;-75
2021/09/14 08:48:04;;;;;;;27.77;9.85;;;20.60;94.10;;;;;;5027634;28;20104;-74
2021/09/14 08:50:30;;;;;;;18.35;8.85;;;20.60;93.30;;;;;;5027494;28;20104;-73
2021/09/14 08:52:56;;;;;;;30.63;9.88;;;20.70;93.70;;;;;;5027407;28;20105;-74
2021/09/14 08:55:22;;;;;;;15.98;8.82;;;20.70;93.40;;;;;;5027321;28;20017;-75
2021/09/14 08:57:52;;;;;;;16.70;9.45;;;20.80;93.00;;;;;;5027522;28;20113;-73
2021/09/14 09:00:35;;;;;;;20.67;9.27;;;20.80;92.70;;;;;;5027442;28;20033;-74
2021/09/14 09:03:01;;;;;;;18.90;9.63;;;20.80;92.80;;;;;;5027327;28;20566;-75
2021/09/14 09:05:41;;;;;;;18.48;8.63;;;22.30;91.80;;;;;;5026892;28;20081;-74
2021/09/14 09:08:20;;;;;;;15.82;8.63;;;24.80;89.20;;;;;;5027615;28;20025;-74
2021/09/14 09:11:23;;;;;;;19.55;9.18;;;26.40;86.40;;;;;;5027433;28;20037;-74
2021/09/14 09:13:50;;;;;;;19.00;8.73;;;27.40;85.90;;;;;;4946581;29;20030;-75
2021/09/14 09:16:23;;;;;;;12.55;7.97;;;27.20;84.80;;;;;;5012319;28;20556;-73
2021/09/14 09:18:54;;;;;;;11.82;8.07;;;26.80;87.00;;;;;;5027254;28;20036;-73
2021/09/14 09:21:30;;;;;;;16.90;8.48;;;27.00;85.80;;;;;;5030308;28;20515;-73
2021/09/14 09:23:58;;;;;;;12.80;9.00;;;27.80;84.00;;;;;;5047062;28;20029;-73
2021/09/14 09:26:33;;;;;;;16.75;11.38;;;28.10;84.40;;;;;;5026968;28;20578;-73
2021/09/14 09:29:00;;;;;;;10.95;7.88;;;28.20;81.60;;;;;;5045813;28;20025;-73
2021/09/14 09:31:26;;;;;;;10.57;8.18;;;28.10;82.40;;;;;;5046233;28;20090;-72
2021/09/14 09:34:09;;;;;;;12.98;7.75;;;28.70;82.90;;;;;;5046447;28;20029;-73
2021/09/14 09:36:39;;;;;;;22.23;9.88;;;27.90;82.20;;;;;;5047106;28;20029;-73
2021/09/14 09:39:09;;;;;;;12.48;7.90;;;27.90;83.70;;;;;;5050472;28;20017;-73
2021/09/14 09:41:38;;;;;;;20.13;8.80;;;27.80;82.30;;;;;;5049852;28;20071;-73
2021/09/14 09:44:08;;;;;;;17.58;9.55;;;27.70;82.20;;;;;;5050169;28;20025;-73
2021/09/14 09:46:37;;;;;;;11.77;7.97;;;27.60;82.50;;;;;;5050218;28;20050;-73
2021/09/14 09:49:08;;;;;;;15.27;9.75;;;27.40;83.20;;;;;;5050368;28;20044;-73
2021/09/14 09:51:35;;;;;;;11.38;8.43;;;27.10;83.60;;;;;;5032025;28;20357;-73
2021/09/14 09:54:02;;;;;;;12.52;8.57;;;25.10;84.90;;;;;;5050113;28;20021;-73
2021/09/14 09:56:30;;;;;;;12.18;9.48;;;23.90;86.50;;;;;;5030951;28;20577;-73
2021/09/14 09:58:56;;;;;;;12.73;9.55;;;23.20;88.60;;;;;;5031012;28;20060;-73
2021/09/14 10:01:25;;;;;;;24.42;8.68;;;23.20;89.70;;;;;;5049155;28;20021;-73
2021/09/14 10:04:16;;;;;;;16.52;8.00;;;23.10;88.60;;;;;;5048956;28;20051;-73
2021/09/14 10:06:47;;;;;;;13.95;7.85;;;23.20;90.00;;;;;;5027822;28;20053;-73
2021/09/14 10:09:14;;;;;;;16.85;8.32;;;23.30;88.50;;;;;;5029247;28;20036;-73
2021/09/14 10:11:40;;;;;;;19.05;9.38;;;23.30;88.20;;;;;;5029265;28;20018;-73
2021/09/14 10:14:16;;;;;;;10.85;8.98;;;23.20;88.90;;;;;;5029497;28;20032;-73
2021/09/14 10:16:47;;;;;;;10.23;7.82;;;23.60;89.20;;;;;;5029772;28;20053;-73
2021/09/14 10:19:14;;;;;;;13.48;8.63;;;23.60;88.00;;;;;;5030087;28;20029;-73
2021/09/14 10:21:43;;;;;;;12.63;8.27;;;24.00;87.70;;;;;;5029568;28;20097;-73
2021/09/14 10:24:22;;;;;;;13.15;8.32;;;24.10;87.50;;;;;;5029666;28;20059;-73
2021/09/14 10:26:49;;;;;;;11.43;8.82;;;24.10;87.50;;;;;;5023203;28;20514;-73
2021/09/14 10:29:19;;;;;;;11.40;7.55;;;24.10;86.50;;;;;;5009673;28;20026;-73
2021/09/14 10:31:45;;;;;;;13.00;9.20;;;24.20;86.80;;;;;;5008304;28;20464;-73
2021/09/14 10:34:15;;;;;;;10.63;6.45;;;24.20;87.20;;;;;;5008227;28;20033;-73
2021/09/14 10:36:43;;;;;;;9.15;6.22;;;24.30;88.40;;;;;;5007980;28;20549;-74
2021/09/14 10:39:21;;;;;;;11.13;8.73;;;24.60;88.50;;;;;;5008238;28;20030;-73
2021/09/14 10:41:49;;;;;;;14.52;8.60;;;24.70;86.60;;;;;;5007870;28;20036;-73
2021/09/14 10:44:27;;;;;;;10.90;8.43;;;24.70;86.20;;;;;;5008136;28;20092;-73
2021/09/14 10:47:10;;;;;;;14.25;9.18;;;24.80;86.10;;;;;;5008756;28;20022;-73
2021/09/14 10:49:44;;;;;;;16.97;8.77;;;24.60;85.90;;;;;;5008482;28;20095;-73
2021/09/14 10:52:10;;;;;;;12.25;8.05;;;24.60;87.10;;;;;;5009572;28;20081;-73
2021/09/14 10:54:47;;;;;;;23.30;8.35;;;24.50;86.50;;;;;;5009523;28;20033;-73
2021/09/14 10:57:13;;;;;;;14.07;9.40;;;24.60;86.40;;;;;;5007960;28;20112;-74
2021/09/14 10:59:47;;;;;;;18.92;8.30;;;24.90;87.70;;;;;;5018959;28;20029;-74
2021/09/14 11:02:13;;;;;;;;;;;25.30;87.40;;;;;;5027040;28;20022;-74
2021/09/14 11:04:42;;;;;;;13.02;7.75;;;25.20;85.70;;;;;;5029589;28;19916;-74
2021/09/14 11:07:13;;;;;;;17.00;9.30;;;25.20;85.90;;;;;;5048680;28;20025;-73
2021/09/14 11:09:39;;;;;;;18.65;9.32;;;25.50;86.50;;;;;;5048615;28;20111;-74
2021/09/14 11:12:05;;;;;;;13.52;9.90;;;25.50;86.60;;;;;;5048832;28;20040;-74
2021/09/14 11:14:37;;;;;;;12.52;7.93;;;25.30;85.50;;;;;;5048660;28;20021;-73
2021/09/14 11:17:03;;;;;;;14.95;8.52;;;25.30;86.00;;;;;;5048646;28;20025;-72
2021/09/14 11:19:29;;;;;;;17.55;8.63;;;25.20;85.60;;;;;;5048774;28;20036;-72
2021/09/14 11:21:55;;;;;;;15.00;9.13;;;25.40;86.60;;;;;;5048800;28;20024;-72
2021/09/14 11:24:21;;;;;;;18.75;10.63;;;25.50;86.10;;;;;;5048442;28;20033;-72
2021/09/14 11:26:47;;;;;;;20.73;8.70;;;25.70;86.50;;;;;;5048256;28;20021;-72
2021/09/14 11:29:13;;;;;;;28.90;8.23;;;25.70;84.90;;;;;;5041972;28;20028;-72
2021/09/14 11:31:39;;;;;;;13.90;6.15;;;25.60;85.30;;;;;;5047774;28;20104;-73
2021/09/14 11:34:06;;;;;;;17.33;9.07;;;25.90;85.70;;;;;;5046678;28;20360;-72
2021/09/14 11:36:31;;;;;;;13.43;8.18;;;26.20;85.30;;;;;;5046367;28;20021;-73
2021/09/14 11:39:01;;;;;;;8.52;7.18;;;26.30;84.30;;;;;;5046769;28;20037;-72
2021/09/14 11:41:38;;;;;;;15.27;10.05;;;26.20;84.50;;;;;;5046311;28;20380;-72
2021/09/14 11:44:06;;;;;;;16.55;10.73;;;26.50;84.60;;;;;;5046492;28;20037;-72
2021/09/14 11:46:31;;;;;;;11.88;7.18;;;26.60;83.80;;;;;;5046556;28;20099;-72
2021/09/14 11:49:03;;;;;;;47.00;9.95;;;26.70;83.20;;;;;;5048246;28;20026;-73
2021/09/14 11:51:36;;;;;;;13.45;8.10;;;26.80;83.10;;;;;;5047938;28;20104;-72
2021/09/14 11:54:02;;;;;;;10.95;7.80;;;26.80;83.30;;;;;;5047857;28;20111;-72
2021/09/14 11:56:28;;;;;;;10.88;7.40;;;26.70;82.10;;;;;;5047759;28;20071;-72
2021/09/14 11:58:54;;;;;;;11.20;7.43;;;26.40;82.50;;;;;;5040134;28;20494;-72
2021/09/14 12:01:28;;;;;;;11.75;7.70;;;26.50;83.50;;;;;;5045809;28;20108;-72
2021/09/14 12:03:57;;;;;;;10.38;7.20;;;26.90;83.90;;;;;;5045669;28;20178;-73
2021/09/14 12:06:27;;;;;;;13.70;8.10;;;27.20;82.90;;;;;;5045300;28;20049;-72
2021/09/14 12:09:01;;;;;;;41.05;9.10;;;26.80;81.70;;;;;;5045899;28;20106;-72
2021/09/14 12:11:28;;;;;;;12.60;8.52;;;26.60;81.80;;;;;;5045713;28;20029;-73
2021/09/14 12:13:59;;;;;;;9.98;7.22;;;26.50;82.20;;;;;;5045941;28;20025;-72
2021/09/14 12:16:28;;;;;;;10.95;7.65;;;26.90;84.00;;;;;;5045972;28;20021;-72
2021/09/14 12:18:55;;;;;;;167.18;18.02;;;27.20;83.10;;;;;;5047355;28;20049;-72
2021/09/14 12:21:22;;;;;;;30.65;9.95;;;27.40;81.30;;;;;;5047399;28;20029;-72
2021/09/14 12:23:48;;;;;;;24.70;8.00;;;27.40;82.50;;;;;;5047597;28;20406;-72
2021/09/14 12:26:21;;;;;;;63.70;10.25;;;27.50;81.50;;;;;;5047164;28;20100;-72
2021/09/14 12:28:48;;;;;;;14.82;7.20;;;27.30;82.20;;;;;;5047550;28;20086;-72
2021/09/14 12:31:15;;;;;;;38.17;10.15;;;27.60;83.20;;;;;;5047522;28;20113;-72
2021/09/14 12:33:40;;;;;;;11.88;8.07;;;28.00;83.40;;;;;;5047181;28;20014;-72
2021/09/14 12:36:06;;;;;;;10.43;6.85;;;28.00;80.60;;;;;;5047248;28;20972;-72
2021/09/14 12:38:32;;;;;;;13.48;7.55;;;28.00;81.00;;;;;;5047190;28;20087;-73
2021/09/14 12:40:57;;;;;;;9.70;4.72;;;28.10;81.10;;;;;;5046926;28;20021;-72
2021/09/14 12:43:23;;;;;;;14.85;5.15;;;28.30;81.50;;;;;;5046855;28;20044;-73
2021/09/14 12:45:49;;;;;;;10.88;6.03;;;28.50;82.70;;;;;;5047034;28;20024;-72
2021/09/14 12:48:15;;;;;;;9.82;6.82;;;28.40;79.50;;;;;;5047190;28;20055;-73
2021/09/14 12:50:40;;;;;;;12.02;5.93;;;28.10;79.90;;;;;;5046844;28;20510;-72
2021/09/14 12:53:06;;;;;;;13.60;6.10;;;28.10;80.30;;;;;;5047242;28;20024;-72
2021/09/14 12:55:36;;;;;;;7.97;5.35;;;28.50;80.00;;;;;;5046728;28;20029;-73
2021/09/14 12:58:03;;;;;;;9.45;5.03;;;28.90;78.80;;;;;;5043287;28;20033;-72
2021/09/14 13:00:29;;;;;;;28.15;25.30;;;28.80;77.90;;;;;;5028318;28;20599;-72
2021/09/14 13:02:55;;;;;;;9.80;5.95;;;29.00;80.20;;;;;;5025801;28;20039;-73
2021/09/14 13:05:20;;;;;;;14.38;5.95;;;29.00;78.30;;;;;;5024681;28;20049;-73
2021/09/14 13:07:46;;;;;;;134.82;23.20;;;29.00;78.60;;;;;;5025508;28;20108;-73
2021/09/14 13:10:13;;;;;;;18.38;5.40;;;29.20;78.30;;;;;;5025237;28;20033;-72
2021/09/14 13:12:46;;;;;;;10.73;4.82;;;29.50;77.60;;;;;;5024451;28;20487;-72
2021/09/14 13:17:57;;;;;;;10.25;4.75;;;29.40;76.10;;;;;;5025363;28;20129;-73
2021/09/14 13:20:23;;;;;;;7.50;4.10;;;29.60;77.90;;;;;;5026680;28;20093;-73
2021/09/14 13:22:48;;;;;;;8.73;4.57;;;29.70;76.40;;;;;;5026760;28;20033;-73
2021/09/14 13:25:14;;;;;;;8.02;4.28;;;29.80;76.30;;;;;;5026710;28;20025;-72
2021/09/14 13:27:40;;;;;;;12.30;4.97;;;29.70;74.40;;;;;;5026575;28;20091;-73
2021/09/14 13:30:06;;;;;;;10.40;4.85;;;29.70;74.80;;;;;;5026741;28;20036;-73
2021/09/14 13:32:32;;;;;;;7.25;4.85;;;29.60;75.80;;;;;;5026426;28;20036;-73
2021/09/14 13:34:58;;;;;;;8.90;5.70;;;29.70;76.70;;;;;;5026612;28;20030;-73
2021/09/14 13:37:23;;;;;;;11.55;4.75;;;29.50;76.00;;;;;;5026366;28;20380;-72
2021/09/14 13:39:50;;;;;;;9.57;5.13;;;29.50;76.10;;;;;;5026428;28;20029;-72
2021/09/14 13:42:22;;;;;;;58.67;8.82;;;29.60;74.90;;;;;;5026610;28;20021;-73